createdAt,value
2022-09-03T00:00:14.570Z,24.88
2022-09-03T00:05:20.055Z,24.81
2022-09-03T00:10:25.431Z,24.75
2022-09-03T00:15:29.517Z,24.69
2022-09-03T00:20:33.173Z,24.66
2022-09-03T00:25:38.559Z,24.61
2022-09-03T00:30:43.813Z,24.56
2022-09-03T00:35:48.602Z,24.50
2022-09-03T00:41:01.613Z,24.47
2022-09-03T00:46:08.962Z,24.39
2022-09-03T00:51:16.809Z,24.32
2022-09-03T00:56:23.269Z,24.29
2022-09-03T01:01:31.055Z,24.23
2022-09-03T01:06:36.667Z,24.19
2022-09-03T01:11:47.136Z,24.14
2022-09-03T01:16:53.318Z,24.13
2022-09-03T01:22:05.589Z,24.09
2022-09-03T01:27:16.531Z,24.05
2022-09-03T01:32:24.921Z,24.01
2022-09-03T01:37:34.042Z,24.00
2022-09-03T01:42:44.076Z,23.95
2022-09-03T01:47:56.081Z,23.93
2022-09-03T01:53:03.024Z,23.93
2022-09-03T01:58:07.617Z,23.92
2022-09-03T02:03:11.576Z,23.92
2022-09-03T02:08:14.223Z,23.92
2022-09-03T02:13:18.483Z,23.93
2022-09-03T02:18:24.083Z,23.92
2022-09-03T02:23:31.935Z,23.93
2022-09-03T02:28:34.632Z,23.89
2022-09-03T02:33:39.825Z,23.87
2022-09-03T02:38:43.031Z,23.87
2022-09-03T02:43:48.531Z,23.86
2022-09-03T02:48:53.009Z,23.86
2022-09-03T02:53:55.943Z,23.83
2022-09-03T02:58:58.679Z,23.85
2022-09-03T03:04:03.032Z,23.82
2022-09-03T03:09:07.019Z,23.82
2022-09-03T03:14:10.669Z,23.79
2022-09-03T03:19:14.758Z,23.76
2022-09-03T03:24:17.555Z,23.76
2022-09-03T03:29:20.667Z,23.72
2022-09-03T03:34:24.693Z,23.69
2022-09-03T03:39:27.463Z,23.68
2022-09-03T03:44:30.185Z,23.64
2022-09-03T03:49:34.526Z,23.62
2022-09-03T03:54:37.339Z,23.55
2022-09-03T03:59:40.061Z,23.58
2022-09-03T04:04:44.232Z,23.57
2022-09-03T04:09:47.335Z,23.54
2022-09-03T04:14:50.283Z,23.54
2022-09-03T04:19:54.328Z,23.50
2022-09-03T04:24:57.114Z,23.47
2022-09-03T04:29:59.849Z,23.41
2022-09-03T04:35:06.707Z,23.43
2022-09-03T04:40:10.044Z,23.38
2022-09-03T04:45:18.660Z,23.32
2022-09-03T04:50:23.655Z,23.31
2022-09-03T04:55:35.160Z,23.29
2022-09-03T05:00:37.947Z,23.28
2022-09-03T05:05:42.418Z,23.23
2022-09-03T05:10:45.084Z,23.21
2022-09-03T05:15:47.958Z,23.21
2022-09-03T05:20:59.023Z,23.20
2022-09-03T05:26:02.568Z,23.20
2022-09-03T05:31:06.468Z,23.20
2022-09-03T05:36:13.076Z,23.18
2022-09-03T05:41:16.236Z,23.18
2022-09-03T05:46:21.692Z,23.18
2022-09-03T05:51:25.715Z,23.21
2022-09-03T05:56:29.732Z,23.22
2022-09-03T06:01:33.141Z,23.22
2022-09-03T06:06:38.231Z,23.23
2022-09-03T06:11:42.680Z,23.20
2022-09-03T06:16:48.921Z,23.20
2022-09-03T06:21:53.119Z,23.22
2022-09-03T06:26:56.229Z,23.22
2022-09-03T06:31:59.425Z,23.21
2022-09-03T06:37:03.478Z,23.20
2022-09-03T06:42:06.805Z,23.22
2022-09-03T06:47:12.373Z,23.23
2022-09-03T06:52:16.617Z,23.23
2022-09-03T06:57:20.351Z,23.24
2022-09-03T07:02:23.253Z,23.25
2022-09-03T07:07:27.481Z,23.26
2022-09-03T07:12:30.181Z,23.27
2022-09-03T07:17:32.884Z,23.31
2022-09-03T07:22:37.022Z,23.32
2022-09-03T07:27:39.758Z,23.31
2022-09-03T07:32:42.483Z,23.28
2022-09-03T07:37:46.556Z,23.36
2022-09-03T07:42:54.540Z,23.24
2022-09-03T07:47:57.935Z,22.99
2022-09-03T07:53:02.053Z,22.81
2022-09-03T07:58:04.814Z,22.82
2022-09-03T08:03:08.753Z,22.65
2022-09-03T08:08:25.588Z,22.69
2022-09-03T08:13:33.964Z,22.73
2022-09-03T08:18:37.696Z,22.75
2022-09-03T08:23:42.650Z,22.67
2022-09-03T08:28:45.522Z,22.68
2022-09-03T08:33:49.030Z,22.68
2022-09-03T08:38:55.196Z,22.67
2022-09-03T08:44:08.752Z,22.58
2022-09-03T08:49:12.409Z,22.57
2022-09-03T08:54:16.422Z,22.66
2022-09-03T08:59:20.813Z,22.83
2022-09-03T09:04:42.190Z,22.96
2022-09-03T09:09:49.887Z,23.04
2022-09-03T09:15:00.301Z,23.11
2022-09-03T09:20:08.134Z,23.17
2022-09-03T09:25:14.605Z,23.20
2022-09-03T09:30:18.079Z,23.24
2022-09-03T09:35:21.052Z,23.28
2022-09-03T09:40:33.044Z,23.32
2022-09-03T09:45:37.305Z,23.34
2022-09-03T09:50:40.052Z,23.36
2022-09-03T09:55:54.603Z,23.44
2022-09-03T10:01:03.069Z,23.45
2022-09-03T10:06:21.392Z,23.45
2022-09-03T10:11:27.468Z,23.49
2022-09-03T10:16:31.638Z,23.51
2022-09-03T10:21:38.963Z,23.55
2022-09-03T10:26:44.589Z,23.61
2022-09-03T10:31:55.203Z,23.72
2022-09-03T10:37:01.480Z,23.80
2022-09-03T10:42:09.609Z,23.88
2022-09-03T10:47:21.705Z,23.97
2022-09-03T10:52:28.714Z,24.05
2022-09-03T10:57:39.080Z,24.09
2022-09-03T11:03:07.350Z,24.18
2022-09-03T11:08:13.297Z,24.23
2022-09-03T11:13:20.087Z,24.33
2022-09-03T11:18:25.039Z,24.36
2022-09-03T11:23:28.368Z,24.44
2022-09-03T11:28:38.557Z,24.54
2022-09-03T11:33:42.810Z,24.49
2022-09-03T11:38:45.673Z,24.47
2022-09-03T11:43:49.994Z,24.50
2022-09-03T11:48:53.918Z,24.51
2022-09-03T11:53:57.017Z,24.53
2022-09-03T11:59:04.145Z,24.60
2022-09-03T12:04:07.650Z,24.58
2022-09-03T12:09:21.234Z,24.61
2022-09-03T12:14:28.180Z,24.66
2022-09-03T12:19:36.583Z,24.69
2022-09-03T12:24:39.428Z,24.74
2022-09-03T12:29:51.855Z,24.72
2022-09-03T12:34:54.958Z,24.81
2022-09-03T12:40:07.759Z,24.89
2022-09-03T12:45:16.470Z,24.93
2022-09-03T12:50:20.491Z,24.90
2022-09-03T12:55:29.096Z,24.93
2022-09-03T13:00:33.952Z,24.94
2022-09-03T13:05:39.061Z,25.06
2022-09-03T13:10:42.511Z,25.04
2022-09-03T13:15:57.233Z,25.08
2022-09-03T13:21:08.050Z,25.12
2022-09-03T13:26:18.791Z,25.27
2022-09-03T13:31:28.206Z,25.14
2022-09-03T13:36:32.629Z,25.23
2022-09-03T13:41:38.724Z,25.30
2022-09-03T13:46:45.761Z,25.24
2022-09-03T13:51:50.529Z,25.24
2022-09-03T13:56:57.690Z,25.39
2022-09-03T14:02:08.508Z,25.43
2022-09-03T14:07:14.750Z,25.51
2022-09-03T14:12:19.551Z,25.51
2022-09-03T14:17:32.073Z,25.53
2022-09-03T14:22:42.436Z,25.51
2022-09-03T14:27:45.155Z,25.45
2022-09-03T14:32:51.421Z,25.52
2022-09-03T14:38:12.413Z,25.59
2022-09-03T14:43:49.576Z,25.57
2022-09-03T14:49:05.198Z,25.59
2022-09-03T14:54:38.391Z,25.71
2022-09-03T14:59:51.851Z,25.72
2022-09-03T15:05:09.588Z,25.77
2022-09-03T15:10:19.140Z,25.64
2022-09-03T15:15:22.873Z,25.72
2022-09-03T15:20:33.127Z,25.76
2022-09-03T15:25:43.508Z,25.68
2022-09-03T15:30:47.173Z,25.75
2022-09-03T15:36:08.603Z,25.61
2022-09-03T15:41:30.939Z,25.75
2022-09-03T15:46:38.603Z,25.76
2022-09-03T15:51:47.103Z,25.73
2022-09-03T15:56:54.674Z,25.66
2022-09-03T16:01:58.875Z,25.73
2022-09-03T16:07:05.024Z,25.87
2022-09-03T16:12:12.331Z,26.00
2022-09-03T16:17:20.747Z,25.97
2022-09-03T16:22:27.908Z,25.86
2022-09-03T16:27:33.593Z,25.89
2022-09-03T16:32:57.538Z,25.79
2022-09-03T16:38:10.215Z,25.71
2022-09-03T16:43:39.700Z,25.78
2022-09-03T16:48:49.202Z,25.73
2022-09-03T16:54:08.424Z,25.69
2022-09-03T16:59:16.885Z,25.69
2022-09-03T17:04:36.636Z,25.57
2022-09-03T17:09:56.320Z,25.50
2022-09-03T17:15:14.168Z,25.43
2022-09-03T17:20:19.985Z,25.33
2022-09-03T17:25:29.955Z,25.27
2022-09-03T17:30:40.600Z,25.22
2022-09-03T17:35:47.867Z,25.18
2022-09-03T17:40:59.409Z,25.16
2022-09-03T17:46:09.635Z,25.11
2022-09-03T17:51:16.285Z,25.08
2022-09-03T17:56:24.565Z,25.04
2022-09-03T18:01:28.741Z,25.01
2022-09-03T18:06:34.042Z,25.02
2022-09-03T18:11:39.493Z,25.05
2022-09-03T18:16:43.341Z,25.05
2022-09-03T18:22:04.838Z,25.10
2022-09-03T18:27:28.611Z,25.12
2022-09-03T18:32:49.437Z,25.08
2022-09-03T18:38:09.513Z,25.09
2022-09-03T18:43:33.389Z,25.11
2022-09-03T18:48:55.064Z,25.10
2022-09-03T18:54:21.545Z,25.14
2022-09-03T18:59:51.647Z,25.11
2022-09-03T19:05:18.189Z,25.08
2022-09-03T19:10:39.754Z,25.10
2022-09-03T19:16:04.040Z,25.11
2022-09-03T19:21:30.045Z,25.12
2022-09-03T19:26:56.398Z,25.10
2022-09-03T19:32:19.940Z,25.11
2022-09-03T19:37:42.084Z,25.07
2022-09-03T19:43:08.478Z,25.05
2022-09-03T19:48:47.727Z,25.10
2022-09-03T19:54:08.135Z,25.06
2022-09-03T19:59:30.989Z,25.00
2022-09-03T20:04:54.663Z,25.06
2022-09-03T20:10:16.647Z,25.12
2022-09-03T20:15:19.424Z,25.12
2022-09-03T20:20:25.636Z,25.12
2022-09-03T20:25:38.904Z,25.13
2022-09-03T20:30:43.752Z,25.12
2022-09-03T20:35:53.486Z,25.14
2022-09-03T20:41:10.603Z,25.16
2022-09-03T20:46:25.862Z,25.13
2022-09-03T20:51:34.932Z,25.08
2022-09-03T20:56:48.057Z,25.03
2022-09-03T21:01:53.830Z,25.09
2022-09-03T21:07:00.873Z,25.02
2022-09-03T21:12:06.813Z,25.06
2022-09-03T21:17:21.365Z,25.12
2022-09-03T21:22:29.664Z,25.12
2022-09-03T21:27:34.506Z,25.10
2022-09-03T21:32:42.156Z,25.13
2022-09-03T21:37:51.167Z,25.11
2022-09-03T21:42:55.198Z,25.02
2022-09-03T21:47:59.680Z,24.98
2022-09-03T21:53:04.925Z,25.01
2022-09-03T21:58:15.094Z,24.95
2022-09-03T22:03:17.954Z,24.97
2022-09-03T22:08:24.701Z,25.06
2022-09-03T22:13:30.949Z,25.03
2022-09-03T22:18:37.860Z,25.02
2022-09-03T22:23:48.030Z,25.10
2022-09-03T22:28:57.741Z,25.14
2022-09-03T22:34:04.710Z,25.12
2022-09-03T22:39:15.038Z,25.14
2022-09-03T22:44:25.876Z,25.15
2022-09-03T22:49:32.982Z,25.19
2022-09-03T22:54:44.396Z,25.24
2022-09-03T22:59:51.113Z,25.19
2022-09-03T23:05:01.965Z,25.20
2022-09-03T23:10:07.595Z,25.22
2022-09-03T23:15:11.431Z,25.00
2022-09-03T23:20:16.136Z,25.01
2022-09-03T23:25:21.415Z,24.96
2022-09-03T23:30:24.131Z,24.98
2022-09-03T23:35:28.042Z,24.93
2022-09-03T23:40:45.953Z,24.90
2022-09-03T23:45:51.378Z,24.89
2022-09-03T23:50:59.254Z,24.86
2022-09-03T23:56:09.084Z,24.89
